createdAt,value
2019-03-06T00:01:26.865Z,7.40
2019-03-06T00:03:56.677Z,6.67
2019-03-06T00:06:26.443Z,6.90
2019-03-06T00:08:56.233Z,7.90
2019-03-06T00:11:25.900Z,7.30
2019-03-06T00:13:55.735Z,7.63
2019-03-06T00:16:25.491Z,7.27
2019-03-06T00:18:55.108Z,7.37
2019-03-06T00:21:24.824Z,7.33
2019-03-06T00:23:54.662Z,7.00
2019-03-06T00:26:24.408Z,7.50
2019-03-06T00:28:54.179Z,7.13
2019-03-06T00:31:23.924Z,7.03
2019-03-06T00:33:53.833Z,6.90
2019-03-06T00:36:24.948Z,7.20
2019-03-06T00:38:54.582Z,7.03
2019-03-06T00:41:29.190Z,5.93
2019-03-06T00:43:59.255Z,6.60
2019-03-06T00:46:29.167Z,7.13
2019-03-06T00:48:58.798Z,6.60
2019-03-06T00:51:28.476Z,7.90
2019-03-06T00:53:58.143Z,7.07
2019-03-06T00:56:28.391Z,7.07
2019-03-06T00:58:58.103Z,6.47
2019-03-06T01:01:27.859Z,7.33
2019-03-06T01:03:57.530Z,7.43
2019-03-06T01:06:27.778Z,5.90
2019-03-06T01:08:57.525Z,6.73
2019-03-06T01:11:27.297Z,5.47
2019-03-06T01:13:57.121Z,6.17
2019-03-06T01:16:26.762Z,6.30
2019-03-06T01:18:56.853Z,5.63
2019-03-06T01:21:26.592Z,5.67
2019-03-06T01:23:56.512Z,5.97
2019-03-06T01:26:26.147Z,5.97
2019-03-06T01:28:55.911Z,6.13
2019-03-06T01:31:25.546Z,6.40
2019-03-06T01:34:12.996Z,6.67
2019-03-06T01:36:53.758Z,7.30
2019-03-06T01:39:35.931Z,6.63
2019-03-06T01:42:16.779Z,6.60
2019-03-06T01:44:56.151Z,6.43
2019-03-06T01:47:25.925Z,6.83
2019-03-06T01:49:55.700Z,7.23
2019-03-06T01:52:25.430Z,6.70
2019-03-06T01:54:55.108Z,7.20
2019-03-06T01:57:24.855Z,6.80
2019-03-06T01:59:54.637Z,6.63
2019-03-06T02:02:24.361Z,6.00
2019-03-06T02:04:54.388Z,6.70
2019-03-06T02:07:24.526Z,7.13
2019-03-06T02:09:54.333Z,7.53
2019-03-06T02:12:24.001Z,7.00
2019-03-06T02:14:54.750Z,6.67
2019-03-06T02:17:24.478Z,7.03
2019-03-06T02:19:54.220Z,6.50
2019-03-06T02:22:23.926Z,6.50
2019-03-06T02:24:53.702Z,7.80
2019-03-06T02:27:23.306Z,7.00
2019-03-06T02:29:52.914Z,6.57
2019-03-06T02:32:22.599Z,7.40
2019-03-06T02:34:52.320Z,7.03
2019-03-06T02:37:22.014Z,6.67
2019-03-06T02:39:51.743Z,5.93
2019-03-06T02:42:21.375Z,6.87
2019-03-06T02:44:51.121Z,7.20
2019-03-06T02:47:20.787Z,7.23
2019-03-06T02:49:50.443Z,7.43
2019-03-06T02:52:20.175Z,7.00
2019-03-06T02:54:49.892Z,8.07
2019-03-06T02:57:19.609Z,7.17
2019-03-06T03:00:04.436Z,6.90
2019-03-06T03:03:02.890Z,7.43
2019-03-06T03:05:46.951Z,5.57
2019-03-06T03:08:16.645Z,7.43
2019-03-06T03:10:46.563Z,7.33
2019-03-06T03:13:16.201Z,7.00
2019-03-06T03:15:45.991Z,6.13
2019-03-06T03:18:16.650Z,6.83
2019-03-06T03:20:46.381Z,7.30
2019-03-06T03:23:16.218Z,6.43
2019-03-06T03:25:46.002Z,6.43
2019-03-06T03:28:15.654Z,6.33
2019-03-06T03:30:45.499Z,6.53
2019-03-06T03:33:15.189Z,8.00
2019-03-06T03:35:44.904Z,7.30
2019-03-06T03:38:14.552Z,6.80
2019-03-06T03:40:44.199Z,9.20
2019-03-06T03:43:13.917Z,7.37
2019-03-06T03:45:43.639Z,8.57
2019-03-06T03:48:13.267Z,8.43
2019-03-06T03:50:43.020Z,7.90
2019-03-06T03:53:12.721Z,8.53
2019-03-06T03:55:43.424Z,9.90
2019-03-06T03:58:13.124Z,7.97
2019-03-06T04:00:42.722Z,9.07
2019-03-06T04:03:13.040Z,8.10
2019-03-06T04:05:42.692Z,8.87
2019-03-06T04:08:12.413Z,8.13
2019-03-06T04:10:42.101Z,8.60
2019-03-06T04:13:11.773Z,8.07
2019-03-06T04:15:41.664Z,8.90
2019-03-06T04:18:11.394Z,8.27
2019-03-06T04:20:41.205Z,9.83
2019-03-06T04:23:10.884Z,8.00
2019-03-06T04:25:40.486Z,8.67
2019-03-06T04:28:10.211Z,9.60
2019-03-06T04:30:39.912Z,10.47
2019-03-06T04:33:09.637Z,10.03
2019-03-06T04:35:39.337Z,11.07
2019-03-06T04:38:09.088Z,9.73
2019-03-06T04:40:38.797Z,10.63
2019-03-06T04:43:08.446Z,10.43
2019-03-06T04:45:38.089Z,9.87
2019-03-06T04:48:07.801Z,9.10
2019-03-06T04:50:37.475Z,10.17
2019-03-06T04:53:07.288Z,9.73
2019-03-06T04:55:36.991Z,10.80
2019-03-06T04:58:06.677Z,10.03
2019-03-06T05:00:36.551Z,11.00
2019-03-06T05:03:06.247Z,10.13
2019-03-06T05:05:35.978Z,10.60
2019-03-06T05:08:05.763Z,9.70
2019-03-06T05:10:36.014Z,9.30
2019-03-06T05:13:05.867Z,9.43
2019-03-06T05:15:35.614Z,8.83
2019-03-06T05:18:14.822Z,7.97
2019-03-06T05:20:44.436Z,8.73
2019-03-06T05:23:14.494Z,8.63
2019-03-06T05:25:44.129Z,7.60
2019-03-06T05:28:13.756Z,9.37
2019-03-06T05:30:43.366Z,8.80
2019-03-06T05:33:13.666Z,8.40
2019-03-06T05:36:10.387Z,9.40
2019-03-06T05:39:01.849Z,9.00
2019-03-06T05:41:33.094Z,8.37
2019-03-06T05:44:02.733Z,8.10
2019-03-06T05:46:32.375Z,8.87
2019-03-06T05:49:02.056Z,9.23
2019-03-06T05:51:31.855Z,9.07
2019-03-06T05:54:01.610Z,9.77
2019-03-06T05:56:31.282Z,8.80
2019-03-06T05:59:02.035Z,9.30
2019-03-06T06:01:32.110Z,8.40
2019-03-06T06:04:01.789Z,8.80
2019-03-06T06:06:31.515Z,8.73
2019-03-06T06:09:01.248Z,8.77
2019-03-06T06:11:32.601Z,9.70
2019-03-06T06:14:02.274Z,9.27
2019-03-06T06:16:32.070Z,7.67
2019-03-06T06:19:01.899Z,10.10
2019-03-06T06:21:44.975Z,9.33
2019-03-06T06:24:18.894Z,9.40
2019-03-06T06:26:48.633Z,9.27
2019-03-06T06:29:18.307Z,10.23
2019-03-06T06:31:48.101Z,10.77
2019-03-06T06:34:17.934Z,9.33
2019-03-06T06:36:47.575Z,11.93
2019-03-06T06:39:18.175Z,9.27
2019-03-06T06:41:47.911Z,8.90
2019-03-06T06:44:17.664Z,9.87
2019-03-06T06:46:47.302Z,9.07
2019-03-06T06:49:16.910Z,9.63
2019-03-06T06:52:20.580Z,10.13
2019-03-06T06:55:28.406Z,11.00
2019-03-06T06:58:38.831Z,10.40
2019-03-06T07:01:57.501Z,9.50
2019-03-06T07:04:43.951Z,8.50
2019-03-06T07:07:29.395Z,8.90
2019-03-06T07:10:08.213Z,9.63
2019-03-06T07:12:45.134Z,9.40
2019-03-06T07:15:52.477Z,9.80
2019-03-06T07:18:40.653Z,10.60
2019-03-06T07:21:17.614Z,11.27
2019-03-06T07:23:57.927Z,9.03
2019-03-06T07:26:42.714Z,10.83
2019-03-06T07:29:22.000Z,8.97
2019-03-06T07:32:03.895Z,11.00
2019-03-06T07:34:48.845Z,10.73
2019-03-06T07:37:37.674Z,11.10
2019-03-06T07:40:17.692Z,11.00
2019-03-06T07:43:06.588Z,11.60
2019-03-06T07:46:09.664Z,10.30
2019-03-06T07:48:52.385Z,10.57
2019-03-06T07:51:26.752Z,9.90
2019-03-06T07:54:10.935Z,10.90
2019-03-06T07:56:44.531Z,9.80
2019-03-06T07:59:14.220Z,9.63
2019-03-06T08:01:47.599Z,10.97
2019-03-06T08:04:17.893Z,9.97
2019-03-06T08:06:57.478Z,9.67
2019-03-06T08:09:27.226Z,9.67
2019-03-06T08:12:15.934Z,10.27
2019-03-06T08:15:20.266Z,9.53
2019-03-06T08:18:17.948Z,9.70
2019-03-06T08:20:57.177Z,9.87
2019-03-06T08:23:32.164Z,9.97
2019-03-06T08:26:01.704Z,8.73
2019-03-06T08:28:31.362Z,9.80
2019-03-06T08:31:09.606Z,9.90
2019-03-06T08:33:39.236Z,10.00
2019-03-06T08:36:08.801Z,8.67
2019-03-06T08:38:38.422Z,8.50
2019-03-06T08:41:07.988Z,9.03
2019-03-06T08:43:37.764Z,8.40
2019-03-06T08:46:29.533Z,8.17
2019-03-06T08:49:17.238Z,8.57
2019-03-06T08:52:02.923Z,7.60
2019-03-06T08:54:42.164Z,7.97
2019-03-06T08:57:29.958Z,6.73
2019-03-06T09:00:20.188Z,6.67
2019-03-06T09:03:16.672Z,7.03
2019-03-06T09:06:02.332Z,7.97
2019-03-06T09:09:03.413Z,6.90
2019-03-06T09:11:52.637Z,7.40
2019-03-06T09:14:56.730Z,7.47
2019-03-06T09:17:35.548Z,7.03
2019-03-06T09:20:24.545Z,7.13
2019-03-06T09:23:31.719Z,6.17
2019-03-06T09:26:10.840Z,7.40
2019-03-06T09:29:01.346Z,7.17
2019-03-06T09:31:46.532Z,6.50
2019-03-06T09:34:37.689Z,7.13
2019-03-06T09:37:25.382Z,7.47
2019-03-06T09:40:06.176Z,7.00
2019-03-06T09:43:07.002Z,7.03
2019-03-06T09:45:54.585Z,6.53
2019-03-06T09:48:58.297Z,5.93
2019-03-06T09:51:51.820Z,6.07
2019-03-06T09:54:34.165Z,5.77
2019-03-06T09:57:35.153Z,5.73
2019-03-06T10:00:24.204Z,5.20
2019-03-06T10:03:15.691Z,4.73
2019-03-06T10:06:01.808Z,4.67
2019-03-06T10:08:38.223Z,5.20
2019-03-06T10:11:17.232Z,4.77
2019-03-06T10:14:00.578Z,5.47
2019-03-06T10:16:52.006Z,5.50
2019-03-06T10:19:31.469Z,5.37
2019-03-06T10:22:01.109Z,5.87
2019-03-06T10:24:30.758Z,5.80
2019-03-06T10:27:00.397Z,6.80
2019-03-06T10:29:30.125Z,5.90
2019-03-06T10:31:59.882Z,5.60
2019-03-06T10:34:29.616Z,5.63
2019-03-06T10:36:59.316Z,5.17
2019-03-06T10:39:29.685Z,6.03
2019-03-06T10:42:00.301Z,4.97
2019-03-06T10:44:30.136Z,5.67
2019-03-06T10:46:59.811Z,5.70
2019-03-06T10:49:29.858Z,5.73
2019-03-06T10:51:59.589Z,7.13
2019-03-06T10:54:29.309Z,6.73
2019-03-06T10:57:01.312Z,5.20
2019-03-06T10:59:31.136Z,4.97
2019-03-06T11:02:00.756Z,4.70
2019-03-06T11:04:44.919Z,4.67
2019-03-06T11:07:15.185Z,4.77
2019-03-06T11:09:45.064Z,4.60
2019-03-06T11:12:14.792Z,5.10
2019-03-06T11:14:47.678Z,4.53
2019-03-06T11:17:18.680Z,5.10
2019-03-06T11:19:48.812Z,4.30
2019-03-06T11:22:19.897Z,5.10
2019-03-06T11:24:51.612Z,4.67
2019-03-06T11:27:22.412Z,4.70
2019-03-06T11:29:52.090Z,4.47
2019-03-06T11:32:22.068Z,4.40
2019-03-06T11:34:52.895Z,5.47
2019-03-06T11:37:23.119Z,4.60
2019-03-06T11:39:53.005Z,4.30
2019-03-06T11:42:23.301Z,4.73
2019-03-06T11:44:53.067Z,4.00
2019-03-06T11:47:23.041Z,4.13
2019-03-06T11:49:54.730Z,3.60
2019-03-06T11:52:24.930Z,4.03
2019-03-06T11:54:54.891Z,4.03
2019-03-06T11:57:24.697Z,4.00
2019-03-06T11:59:54.749Z,3.60
2019-03-06T12:02:25.894Z,3.87
2019-03-06T12:04:58.101Z,3.00
2019-03-06T12:07:31.571Z,3.30
2019-03-06T12:10:10.525Z,3.20
2019-03-06T12:12:42.528Z,3.47
2019-03-06T12:15:15.529Z,3.20
2019-03-06T12:17:45.427Z,2.97
2019-03-06T12:20:15.421Z,2.87
2019-03-06T12:23:00.006Z,3.17
2019-03-06T12:25:31.811Z,3.40
2019-03-06T12:28:04.270Z,2.77
2019-03-06T12:30:34.162Z,2.80
2019-03-06T12:33:03.981Z,2.70
2019-03-06T12:35:34.083Z,2.53
2019-03-06T12:38:03.884Z,2.20
2019-03-06T12:40:34.896Z,2.70
2019-03-06T12:43:05.951Z,1.73
2019-03-06T12:45:35.800Z,2.17
2019-03-06T12:48:07.641Z,1.90
2019-03-06T12:50:38.877Z,1.80
2019-03-06T12:53:09.430Z,2.30
2019-03-06T12:55:39.835Z,1.80
2019-03-06T12:58:09.568Z,2.00
2019-03-06T13:00:39.548Z,2.17
2019-03-06T13:03:09.374Z,2.40
2019-03-06T13:05:39.167Z,2.10
2019-03-06T13:08:19.536Z,2.40
2019-03-06T13:10:42.453Z,1.93
2019-03-06T13:13:12.321Z,2.70
2019-03-06T13:15:42.206Z,2.57
2019-03-06T13:18:13.230Z,3.00
2019-03-06T13:20:43.167Z,2.83
2019-03-06T13:23:13.195Z,2.50
2019-03-06T13:25:42.993Z,2.57
2019-03-06T13:28:13.838Z,2.30
2019-03-06T13:30:43.473Z,2.00
2019-03-06T13:33:23.051Z,2.23
2019-03-06T13:35:53.213Z,2.20
2019-03-06T13:38:24.739Z,2.33
2019-03-06T13:40:56.092Z,2.40
2019-03-06T13:43:25.960Z,2.80
2019-03-06T13:45:55.949Z,2.60
2019-03-06T13:48:29.081Z,2.67
2019-03-06T13:50:59.598Z,2.30
2019-03-06T13:53:30.628Z,2.20
2019-03-06T13:56:01.577Z,2.37
2019-03-06T13:58:32.844Z,1.80
2019-03-06T14:01:03.259Z,2.27
2019-03-06T14:03:33.030Z,2.70
2019-03-06T14:06:03.095Z,2.20
2019-03-06T14:08:32.918Z,2.40
2019-03-06T14:11:05.461Z,2.17
2019-03-06T14:13:36.533Z,2.37
2019-03-06T14:16:08.022Z,1.20
2019-03-06T14:18:38.309Z,1.40
2019-03-06T14:21:12.441Z,1.60
2019-03-06T14:23:42.504Z,1.57
2019-03-06T14:26:12.444Z,1.50
2019-03-06T14:28:42.072Z,1.50
2019-03-06T14:31:15.863Z,1.17
2019-03-06T14:33:46.537Z,1.50
2019-03-06T14:36:16.737Z,1.50
2019-03-06T14:38:47.656Z,1.50
2019-03-06T14:41:17.373Z,1.37
2019-03-06T14:43:48.101Z,1.30
2019-03-06T14:46:20.177Z,1.50
2019-03-06T14:48:53.107Z,1.60
2019-03-06T14:51:23.095Z,1.70
2019-03-06T14:53:52.925Z,1.37
2019-03-06T14:56:22.963Z,1.30
2019-03-06T14:58:52.793Z,1.77
2019-03-06T15:01:22.525Z,1.47
2019-03-06T15:03:52.213Z,1.70
2019-03-06T15:06:33.042Z,2.20
2019-03-06T15:09:14.211Z,1.60
2019-03-06T15:11:44.991Z,2.00
2019-03-06T15:14:15.307Z,1.70
2019-03-06T15:16:45.180Z,1.60
2019-03-06T15:19:16.262Z,2.23
2019-03-06T15:21:45.988Z,1.40
2019-03-06T15:24:16.039Z,2.10
2019-03-06T15:26:45.878Z,1.90
2019-03-06T15:29:17.356Z,2.13
2019-03-06T15:31:48.188Z,2.07
2019-03-06T15:34:22.855Z,2.43
2019-03-06T15:36:52.718Z,2.23
2019-03-06T15:39:42.195Z,3.10
2019-03-06T15:42:11.586Z,2.90
2019-03-06T15:44:41.538Z,3.17
2019-03-06T15:47:11.332Z,3.20
2019-03-06T15:49:43.011Z,2.87
2019-03-06T15:52:12.809Z,3.20
2019-03-06T15:54:42.472Z,3.63
2019-03-06T15:57:12.145Z,3.40
2019-03-06T15:59:42.165Z,3.73
2019-03-06T16:02:12.104Z,4.00
2019-03-06T16:04:41.951Z,3.37
2019-03-06T16:07:11.586Z,3.50
2019-03-06T16:09:41.807Z,3.60
2019-03-06T16:12:12.385Z,3.70
2019-03-06T16:14:43.143Z,3.80
2019-03-06T16:17:12.885Z,4.10
2019-03-06T16:19:42.503Z,4.33
2019-03-06T16:22:13.020Z,4.07
2019-03-06T16:24:44.062Z,3.87
2019-03-06T16:27:13.736Z,4.50
2019-03-06T16:29:43.729Z,3.90
2019-03-06T16:32:13.617Z,4.47
2019-03-06T16:34:45.605Z,4.23
2019-03-06T16:37:15.356Z,4.43
2019-03-06T16:39:45.087Z,5.10
2019-03-06T16:42:14.869Z,4.47
2019-03-06T16:44:44.681Z,5.20
2019-03-06T16:47:15.585Z,5.70
2019-03-06T16:49:45.233Z,5.33
2019-03-06T16:52:15.038Z,5.47
2019-03-06T16:54:44.696Z,4.80
2019-03-06T16:57:17.106Z,5.63
2019-03-06T16:59:47.317Z,5.93
2019-03-06T17:02:18.696Z,6.00
2019-03-06T17:04:48.465Z,6.10
2019-03-06T17:07:18.265Z,5.97
2019-03-06T17:09:48.004Z,5.97
2019-03-06T17:12:18.711Z,6.10
2019-03-06T17:14:48.693Z,6.13
2019-03-06T17:17:18.451Z,5.70
2019-03-06T17:19:48.096Z,6.23
2019-03-06T17:22:17.996Z,5.87
2019-03-06T17:24:47.705Z,5.50
2019-03-06T17:27:18.088Z,6.50
2019-03-06T17:29:47.770Z,6.23
2019-03-06T17:32:17.724Z,5.80
2019-03-06T17:34:47.400Z,5.63
2019-03-06T17:37:17.160Z,6.20
2019-03-06T17:39:47.876Z,6.00
2019-03-06T17:42:17.989Z,6.20
2019-03-06T17:44:47.752Z,5.80
2019-03-06T17:47:17.585Z,5.90
2019-03-06T17:49:47.217Z,5.30
2019-03-06T17:52:16.900Z,5.83
2019-03-06T17:54:46.563Z,5.33
2019-03-06T17:57:17.320Z,5.50
2019-03-06T17:59:46.924Z,5.80
2019-03-06T18:02:18.868Z,6.53
2019-03-06T18:04:48.492Z,5.80
2019-03-06T18:07:18.069Z,6.40
2019-03-06T18:09:47.856Z,6.10
2019-03-06T18:12:18.604Z,6.30
2019-03-06T18:14:48.257Z,6.17
2019-03-06T18:17:17.981Z,5.87
2019-03-06T18:19:47.604Z,5.37
2019-03-06T18:22:17.259Z,5.80
2019-03-06T18:24:46.845Z,5.60
2019-03-06T18:27:16.499Z,6.07
2019-03-06T18:29:46.144Z,5.40
2019-03-06T18:32:16.671Z,5.17
2019-03-06T18:34:46.307Z,5.60
2019-03-06T18:37:16.227Z,5.90
2019-03-06T18:39:45.848Z,5.17
2019-03-06T18:42:16.178Z,5.37
2019-03-06T18:44:50.488Z,5.20
2019-03-06T18:47:20.259Z,5.40
2019-03-06T18:49:49.910Z,5.53
2019-03-06T18:52:19.493Z,5.40
2019-03-06T18:54:49.333Z,5.00
2019-03-06T18:57:19.047Z,5.10
2019-03-06T18:59:48.706Z,4.83
2019-03-06T19:02:18.713Z,4.57
2019-03-06T19:04:48.273Z,4.77
2019-03-06T19:07:17.932Z,5.10
2019-03-06T19:09:47.733Z,5.23
2019-03-06T19:12:17.672Z,4.40
2019-03-06T19:14:47.401Z,4.53
2019-03-06T19:17:17.039Z,4.37
2019-03-06T19:19:47.174Z,4.50
2019-03-06T19:22:16.914Z,4.60
2019-03-06T19:24:48.570Z,4.00
2019-03-06T19:27:18.534Z,4.20
2019-03-06T19:29:49.332Z,4.20
2019-03-06T19:32:18.974Z,4.10
2019-03-06T19:34:48.658Z,3.90
2019-03-06T19:37:18.460Z,3.67
2019-03-06T19:39:48.112Z,4.10
2019-03-06T19:42:17.786Z,4.13
2019-03-06T19:44:47.411Z,4.13
2019-03-06T19:47:17.040Z,3.93
2019-03-06T19:49:46.725Z,3.83
2019-03-06T19:52:16.351Z,3.97
2019-03-06T19:54:45.937Z,4.13
2019-03-06T19:57:15.621Z,4.13
2019-03-06T19:59:46.679Z,2.93
2019-03-06T20:02:16.755Z,3.70
2019-03-06T20:04:46.340Z,3.93
2019-03-06T20:07:15.998Z,3.20
2019-03-06T20:09:45.807Z,3.83
2019-03-06T20:12:15.736Z,3.50
2019-03-06T20:14:45.437Z,3.63
2019-03-06T20:17:15.635Z,3.40
2019-03-06T20:19:45.450Z,3.50
2019-03-06T20:22:15.416Z,3.80
2019-03-06T20:24:47.819Z,3.93
2019-03-06T20:27:22.270Z,3.30
2019-03-06T20:29:52.388Z,3.30
2019-03-06T20:32:24.058Z,3.53
2019-03-06T20:34:54.447Z,3.60
2019-03-06T20:37:24.079Z,3.53
2019-03-06T20:39:54.758Z,3.07
2019-03-06T20:42:24.409Z,3.77
2019-03-06T20:44:55.350Z,3.57
2019-03-06T20:47:24.989Z,3.60
2019-03-06T20:49:55.139Z,3.23
2019-03-06T20:52:25.874Z,3.27
2019-03-06T20:54:55.500Z,3.30
2019-03-06T20:57:25.162Z,3.30
2019-03-06T20:59:54.792Z,3.33
2019-03-06T21:02:24.417Z,3.07
2019-03-06T21:04:54.537Z,3.30
2019-03-06T21:07:24.368Z,3.47
2019-03-06T21:09:54.036Z,3.70
2019-03-06T21:12:24.050Z,3.47
2019-03-06T21:14:53.724Z,3.17
2019-03-06T21:17:23.645Z,3.30
2019-03-06T21:19:53.388Z,3.67
2019-03-06T21:22:23.079Z,3.50
2019-03-06T21:24:52.828Z,3.47
2019-03-06T21:27:22.573Z,3.77
2019-03-06T21:29:52.163Z,3.57
2019-03-06T21:32:21.852Z,3.20
2019-03-06T21:34:51.558Z,2.73
2019-03-06T21:37:21.232Z,3.03
2019-03-06T21:39:56.491Z,3.13
2019-03-06T21:42:26.049Z,3.60
2019-03-06T21:44:55.688Z,3.20
2019-03-06T21:47:25.567Z,3.67
2019-03-06T21:49:55.212Z,3.67
2019-03-06T21:52:24.896Z,3.57
2019-03-06T21:54:54.603Z,3.10
2019-03-06T21:57:24.251Z,3.00
2019-03-06T21:59:53.924Z,3.30
2019-03-06T22:02:23.659Z,3.47
2019-03-06T22:04:53.243Z,3.30
2019-03-06T22:07:22.877Z,3.50
2019-03-06T22:09:52.508Z,3.40
2019-03-06T22:12:22.155Z,3.30
2019-03-06T22:14:51.797Z,3.07
2019-03-06T22:17:21.589Z,3.47
2019-03-06T22:19:51.537Z,3.50
2019-03-06T22:22:21.185Z,3.53
2019-03-06T22:24:50.844Z,3.13
2019-03-06T22:27:20.436Z,3.03
2019-03-06T22:29:50.303Z,3.50
2019-03-06T22:32:19.933Z,3.10
2019-03-06T22:34:51.954Z,2.77
2019-03-06T22:37:21.235Z,3.00
2019-03-06T22:39:50.928Z,3.17
2019-03-06T22:42:20.494Z,3.30
2019-03-06T22:44:50.548Z,2.90
2019-03-06T22:47:20.204Z,3.10
2019-03-06T22:49:50.041Z,3.13
2019-03-06T22:52:19.728Z,3.33
2019-03-06T22:54:49.378Z,3.07
2019-03-06T22:57:19.056Z,3.17
2019-03-06T22:59:48.629Z,2.87
2019-03-06T23:02:19.726Z,3.40
2019-03-06T23:04:49.377Z,3.00
2019-03-06T23:07:19.257Z,3.30
2019-03-06T23:09:49.110Z,3.27
2019-03-06T23:12:18.940Z,2.93
2019-03-06T23:14:48.520Z,3.13
2019-03-06T23:17:18.106Z,3.20
2019-03-06T23:19:47.780Z,3.20
2019-03-06T23:22:18.320Z,3.27
2019-03-06T23:24:48.829Z,3.17
2019-03-06T23:27:18.592Z,3.10
2019-03-06T23:29:48.196Z,3.10
2019-03-06T23:32:17.877Z,3.17
2019-03-06T23:34:47.542Z,3.13
2019-03-06T23:37:17.143Z,3.40
2019-03-06T23:39:46.961Z,2.93
2019-03-06T23:42:16.710Z,2.80
2019-03-06T23:44:46.327Z,3.23
2019-03-06T23:47:15.915Z,3.43
2019-03-06T23:49:45.587Z,4.50
2019-03-06T23:52:23.216Z,3.17
2019-03-06T23:54:52.914Z,3.07
2019-03-06T23:57:22.571Z,3.23
2019-03-06T23:59:52.162Z,2.90
